createdAt,value
2023-05-03T00:00:15.288Z,5.10
2023-05-03T00:02:45.246Z,4.95
2023-05-03T00:05:14.488Z,4.58
2023-05-03T00:07:44.126Z,4.90
2023-05-03T00:10:17.799Z,4.10
2023-05-03T00:12:45.645Z,4.12
2023-05-03T00:15:13.527Z,3.83
2023-05-03T00:17:41.578Z,3.72
2023-05-03T00:20:11.568Z,4.75
2023-05-03T00:22:41.362Z,4.62
2023-05-03T00:25:09.933Z,4.33
2023-05-03T00:27:37.911Z,4.58
2023-05-03T00:30:07.460Z,4.50
2023-05-03T00:32:37.756Z,4.92
2023-05-03T00:35:06.310Z,3.92
2023-05-03T00:37:34.246Z,4.12
2023-05-03T00:40:02.250Z,4.90
2023-05-03T00:42:30.269Z,4.47
2023-05-03T00:44:58.047Z,5.00
2023-05-03T00:47:26.051Z,4.58
2023-05-03T00:49:53.833Z,5.47
2023-05-03T00:52:21.798Z,4.92
2023-05-03T00:54:49.547Z,5.25
2023-05-03T00:57:17.267Z,5.28
2023-05-03T00:59:45.600Z,5.10
2023-05-03T01:02:13.335Z,5.25
2023-05-03T01:04:43.310Z,4.33
2023-05-03T01:07:34.860Z,3.83
2023-05-03T01:10:36.321Z,4.05
2023-05-03T01:13:42.049Z,4.10
2023-05-03T01:16:18.155Z,4.20
2023-05-03T01:18:51.263Z,4.40
2023-05-03T01:21:22.311Z,3.72
2023-05-03T01:24:04.064Z,3.47
2023-05-03T01:26:32.918Z,3.80
2023-05-03T01:29:00.757Z,3.80
2023-05-03T01:31:55.151Z,3.75
2023-05-03T01:34:48.882Z,4.05
2023-05-03T01:37:18.479Z,4.33
2023-05-03T01:39:59.827Z,4.85
2023-05-03T01:42:28.905Z,4.35
2023-05-03T01:44:57.041Z,4.15
2023-05-03T01:47:26.207Z,4.90
2023-05-03T01:49:54.077Z,4.70
2023-05-03T01:52:24.385Z,4.65
2023-05-03T01:54:52.102Z,3.85
2023-05-03T01:57:19.997Z,3.80
2023-05-03T01:59:47.922Z,4.03
2023-05-03T02:02:15.604Z,3.77
2023-05-03T02:04:43.447Z,3.58
2023-05-03T02:07:11.409Z,3.42
2023-05-03T02:09:39.572Z,3.85
2023-05-03T02:12:07.828Z,3.52
2023-05-03T02:14:35.896Z,3.60
2023-05-03T02:17:03.853Z,3.75
2023-05-03T02:19:32.001Z,3.45
2023-05-03T02:22:01.221Z,4.45
2023-05-03T02:24:29.142Z,4.08
2023-05-03T02:26:57.291Z,4.58
2023-05-03T02:29:25.024Z,5.95
2023-05-03T02:31:52.516Z,6.90
2023-05-03T02:34:20.392Z,7.83
2023-05-03T02:36:48.559Z,6.08
2023-05-03T02:39:17.032Z,5.12
2023-05-03T02:41:45.364Z,5.03
2023-05-03T02:44:13.660Z,5.87
2023-05-03T02:46:41.787Z,5.15
2023-05-03T02:49:10.393Z,6.08
2023-05-03T02:51:38.736Z,6.15
2023-05-03T02:57:36.674Z,7.20
2023-05-03T03:00:19.801Z,7.47
2023-05-03T03:02:47.818Z,9.20
2023-05-03T03:05:15.988Z,8.60
2023-05-03T03:07:45.811Z,8.13
2023-05-03T03:10:13.855Z,9.15
2023-05-03T03:12:41.903Z,8.25
2023-05-03T03:15:11.183Z,8.50
2023-05-03T03:17:39.560Z,6.53
2023-05-03T03:20:11.312Z,5.12
2023-05-03T03:22:39.954Z,4.62
2023-05-03T03:25:08.849Z,3.60
2023-05-03T03:27:39.071Z,3.85
2023-05-03T03:30:08.869Z,3.77
2023-05-03T03:32:37.011Z,4.00
2023-05-03T03:35:07.135Z,3.65
2023-05-03T03:37:35.093Z,3.65
2023-05-03T03:40:03.825Z,3.67
2023-05-03T03:42:32.303Z,5.08
2023-05-03T03:45:00.281Z,4.50
2023-05-03T03:47:28.013Z,5.30
2023-05-03T03:49:56.107Z,7.12
2023-05-03T03:52:24.281Z,8.80
2023-05-03T03:54:52.654Z,8.58
2023-05-03T03:57:20.774Z,11.90
2023-05-03T03:59:50.759Z,7.92
2023-05-03T04:02:18.753Z,5.95
2023-05-03T04:04:46.911Z,4.65
2023-05-03T04:07:16.749Z,4.75
2023-05-03T04:09:45.474Z,4.62
2023-05-03T04:12:13.465Z,4.75
2023-05-03T04:14:43.450Z,4.83
2023-05-03T04:17:30.095Z,5.97
2023-05-03T04:20:08.726Z,6.30
2023-05-03T04:22:43.878Z,4.95
2023-05-03T04:25:27.039Z,4.08
2023-05-03T04:28:01.093Z,4.53
2023-05-03T04:30:31.990Z,4.55
2023-05-03T04:33:03.312Z,4.15
2023-05-03T04:35:38.598Z,5.17
2023-05-03T04:38:11.019Z,6.62
2023-05-03T04:40:39.360Z,4.70
2023-05-03T04:43:11.352Z,5.12
2023-05-03T04:45:41.901Z,5.60
2023-05-03T04:48:11.984Z,5.97
2023-05-03T04:50:39.819Z,5.83
2023-05-03T04:53:09.079Z,4.70
2023-05-03T04:55:38.807Z,3.95
2023-05-03T04:58:07.222Z,4.08
2023-05-03T05:00:36.106Z,3.33
2023-05-03T05:03:05.976Z,3.30
2023-05-03T05:05:35.175Z,3.65
2023-05-03T05:08:03.712Z,3.47
2023-05-03T05:10:40.390Z,3.37
2023-05-03T05:13:10.202Z,3.17
2023-05-03T05:15:38.458Z,3.60
2023-05-03T05:18:08.937Z,3.65
2023-05-03T05:20:37.779Z,3.47
2023-05-03T05:23:06.266Z,3.65
2023-05-03T05:25:34.422Z,3.12
2023-05-03T05:28:03.351Z,3.50
2023-05-03T05:30:31.696Z,3.52
2023-05-03T05:33:03.407Z,3.25
2023-05-03T05:35:43.331Z,3.42
2023-05-03T05:38:17.313Z,3.35
2023-05-03T05:40:47.436Z,3.42
2023-05-03T05:43:15.738Z,3.60
2023-05-03T05:45:45.751Z,3.25
2023-05-03T05:48:15.052Z,4.08
2023-05-03T05:50:44.124Z,3.17
2023-05-03T05:53:12.871Z,3.50
2023-05-03T05:55:42.774Z,3.25
2023-05-03T05:58:12.484Z,3.55
2023-05-03T06:00:41.864Z,3.15
2023-05-03T06:03:09.991Z,3.87
2023-05-03T06:05:38.430Z,3.45
2023-05-03T06:08:06.503Z,4.47
2023-05-03T06:10:51.698Z,3.92
2023-05-03T06:14:36.977Z,4.12
2023-05-03T06:16:56.753Z,3.77
2023-05-03T06:19:31.013Z,3.65
2023-05-03T06:22:02.860Z,3.60
2023-05-03T06:27:48.293Z,3.20
2023-05-03T06:30:27.354Z,3.52
2023-05-03T06:33:13.938Z,3.52
2023-05-03T06:36:08.940Z,3.50
2023-05-03T06:38:41.574Z,6.55
2023-05-03T06:41:42.111Z,3.45
2023-05-03T06:44:17.765Z,2.52
2023-05-03T06:47:11.335Z,2.30
2023-05-03T06:52:53.797Z,1.87
2023-05-03T06:59:04.448Z,2.42
2023-05-03T07:01:45.631Z,1.40
2023-05-03T07:04:28.100Z,1.50
2023-05-03T07:07:06.949Z,1.80
2023-05-03T07:09:44.370Z,1.10
2023-05-03T07:14:52.769Z,1.35
2023-05-03T07:17:24.644Z,1.70
2023-05-03T07:20:04.076Z,1.80
2023-05-03T07:23:10.939Z,1.40
2023-05-03T07:25:43.861Z,1.55
2023-05-03T07:28:15.936Z,1.80
2023-05-03T07:30:48.329Z,2.15
2023-05-03T07:33:16.878Z,1.70
2023-05-03T07:35:55.379Z,1.80
2023-05-03T07:38:25.734Z,2.10
2023-05-03T07:40:58.277Z,2.00
2023-05-03T07:50:18.045Z,1.87
2023-05-03T07:53:13.006Z,1.80
2023-05-03T07:58:40.619Z,2.60
2023-05-03T08:01:13.927Z,2.00
2023-05-03T08:04:08.632Z,2.50
2023-05-03T08:06:43.318Z,2.50
2023-05-03T08:09:13.789Z,3.17
2023-05-03T08:11:45.802Z,3.22
2023-05-03T08:14:15.491Z,2.58
2023-05-03T08:16:43.593Z,2.00
2023-05-03T08:19:12.435Z,3.00
2023-05-03T08:22:16.447Z,1.30
2023-05-03T08:24:52.391Z,1.42
2023-05-03T08:27:25.225Z,2.50
2023-05-03T08:29:58.528Z,1.50
2023-05-03T08:32:30.056Z,1.90
2023-05-03T08:34:59.539Z,1.62
2023-05-03T08:37:27.760Z,1.98
2023-05-03T08:39:57.909Z,1.90
2023-05-03T08:42:32.937Z,2.40
2023-05-03T08:45:05.622Z,1.70
2023-05-03T08:47:57.184Z,2.62
2023-05-03T08:50:31.549Z,2.50
2023-05-03T08:53:05.671Z,1.87
2023-05-03T08:55:40.503Z,1.95
2023-05-03T08:58:31.203Z,1.80
2023-05-03T09:01:14.489Z,2.03
2023-05-03T09:03:55.156Z,1.85
2023-05-03T09:06:28.014Z,2.20
2023-05-03T09:09:04.206Z,1.62
2023-05-03T09:11:39.727Z,1.60
2023-05-03T09:14:13.332Z,1.40
2023-05-03T09:16:46.293Z,1.95
2023-05-03T09:19:16.477Z,1.70
2023-05-03T09:21:51.308Z,1.40
2023-05-03T09:24:34.163Z,1.75
2023-05-03T09:27:06.454Z,1.52
2023-05-03T09:29:36.626Z,1.75
2023-05-03T09:32:07.263Z,1.72
2023-05-03T09:34:40.317Z,2.33
2023-05-03T09:37:14.390Z,1.72
2023-05-03T09:39:55.162Z,1.40
2023-05-03T09:42:26.096Z,1.70
2023-05-03T09:44:59.063Z,1.98
2023-05-03T09:47:31.791Z,1.30
2023-05-03T09:49:58.561Z,1.40
2023-05-03T09:52:33.201Z,1.30
2023-05-03T09:55:01.881Z,1.50
2023-05-03T09:57:46.072Z,1.10
2023-05-03T10:00:17.874Z,1.40
2023-05-03T10:02:48.528Z,1.72
2023-05-03T10:05:23.538Z,1.30
2023-05-03T10:07:59.522Z,1.47
2023-05-03T10:10:32.842Z,2.30
2023-05-03T10:13:04.561Z,1.12
2023-05-03T10:15:37.335Z,1.40
2023-05-03T10:18:09.342Z,1.60
2023-05-03T10:20:45.925Z,1.52
2023-05-03T10:23:14.562Z,1.57
2023-05-03T10:26:14.619Z,1.60
2023-05-03T10:28:46.756Z,1.30
2023-05-03T10:31:51.806Z,1.42
2023-05-03T10:34:25.592Z,1.50
2023-05-03T10:36:55.325Z,1.30
2023-05-03T10:39:27.586Z,1.47
2023-05-03T10:42:05.799Z,3.15
2023-05-03T10:44:56.813Z,1.40
2023-05-03T10:47:24.881Z,1.80
2023-05-03T10:50:18.203Z,2.10
2023-05-03T10:52:49.348Z,1.80
2023-05-03T10:55:24.289Z,1.50
2023-05-03T10:57:57.233Z,1.90
2023-05-03T11:00:38.693Z,2.35
2023-05-03T11:03:54.853Z,1.50
2023-05-03T11:09:07.764Z,1.77
2023-05-03T11:11:39.737Z,2.00
2023-05-03T11:14:10.167Z,2.15
2023-05-03T11:16:42.478Z,1.65
2023-05-03T11:19:11.695Z,1.40
2023-05-03T11:21:40.105Z,1.37
2023-05-03T11:24:10.479Z,1.55
2023-05-03T11:26:39.744Z,1.47
2023-05-03T11:29:14.819Z,0.93
2023-05-03T11:34:46.392Z,2.45
2023-05-03T11:37:16.674Z,1.82
2023-05-03T11:39:50.019Z,1.05
2023-05-03T11:42:18.789Z,1.02
2023-05-03T11:44:56.734Z,1.67
2023-05-03T11:50:08.061Z,1.92
2023-05-03T11:52:37.175Z,1.25
2023-05-03T11:55:08.814Z,2.55
2023-05-03T12:00:46.345Z,1.05
2023-05-03T12:03:32.069Z,2.30
2023-05-03T12:06:04.702Z,1.80
2023-05-03T12:08:39.573Z,1.77
2023-05-03T12:11:09.683Z,1.85
2023-05-03T12:13:44.302Z,1.42
2023-05-03T12:16:27.255Z,1.50
2023-05-03T12:19:09.396Z,1.87
2023-05-03T12:22:07.813Z,2.47
2023-05-03T12:24:32.689Z,1.72
2023-05-03T12:27:01.511Z,1.30
2023-05-03T12:32:45.369Z,1.27
2023-05-03T12:38:10.293Z,1.40
2023-05-03T12:40:55.676Z,1.62
2023-05-03T12:43:28.270Z,1.65
2023-05-03T12:46:32.394Z,2.02
2023-05-03T12:48:46.951Z,1.75
2023-05-03T12:54:10.263Z,2.62
2023-05-03T12:57:00.314Z,1.30
2023-05-03T12:59:52.353Z,1.90
2023-05-03T13:12:49.600Z,2.52
2023-05-03T13:15:46.799Z,1.30
2023-05-03T13:18:09.409Z,1.37
2023-05-03T13:21:00.430Z,1.37
2023-05-03T13:23:48.441Z,2.10
2023-05-03T13:26:20.411Z,1.70
2023-05-03T13:28:56.905Z,1.37
2023-05-03T13:31:27.398Z,1.12
2023-05-03T13:33:57.493Z,1.25
2023-05-03T13:36:54.764Z,1.25
2023-05-03T13:39:28.516Z,1.20
2023-05-03T13:41:58.744Z,0.90
2023-05-03T13:44:27.031Z,1.37
2023-05-03T13:46:55.926Z,1.67
2023-05-03T13:49:30.532Z,1.45
2023-05-03T13:51:59.697Z,1.20
2023-05-03T13:54:32.114Z,1.00
2023-05-03T13:57:09.109Z,2.05
2023-05-03T13:59:48.911Z,1.60
2023-05-03T14:02:18.661Z,1.20
2023-05-03T14:04:46.846Z,1.52
2023-05-03T14:07:14.958Z,1.42
2023-05-03T14:09:43.801Z,1.17
2023-05-03T14:12:14.900Z,1.77
2023-05-03T14:14:52.556Z,1.17
2023-05-03T14:17:27.081Z,0.90
2023-05-03T14:20:03.337Z,1.22
2023-05-03T14:22:33.821Z,1.17
2023-05-03T14:25:02.489Z,1.37
2023-05-03T14:27:30.928Z,1.30
2023-05-03T14:30:03.459Z,1.12
2023-05-03T14:32:33.491Z,1.10
2023-05-03T14:35:12.725Z,0.70
2023-05-03T14:37:44.069Z,1.22
2023-05-03T14:40:13.348Z,0.78
2023-05-03T14:42:43.935Z,0.80
2023-05-03T14:45:14.319Z,1.00
2023-05-03T14:47:42.923Z,1.50
2023-05-03T14:50:11.077Z,1.20
2023-05-03T14:52:39.000Z,1.42
2023-05-03T14:55:08.605Z,1.37
2023-05-03T14:57:37.844Z,1.25
2023-05-03T15:00:09.217Z,0.90
2023-05-03T15:02:38.884Z,1.47
2023-05-03T15:05:09.028Z,3.92
2023-05-03T15:07:40.294Z,1.20
2023-05-03T15:10:10.913Z,1.22
2023-05-03T15:12:42.575Z,1.35
2023-05-03T15:15:13.116Z,1.80
2023-05-03T15:17:41.075Z,1.45
2023-05-03T15:20:14.291Z,1.00
2023-05-03T15:22:42.310Z,1.17
2023-05-03T15:25:10.971Z,1.42
2023-05-03T15:27:38.914Z,1.02
2023-05-03T15:30:11.254Z,1.25
2023-05-03T15:32:41.172Z,2.20
2023-05-03T15:35:09.773Z,4.60
2023-05-03T15:37:37.736Z,1.90
2023-05-03T15:40:09.089Z,1.50
2023-05-03T15:42:38.689Z,1.87
2023-05-03T15:45:10.073Z,1.92
2023-05-03T15:47:38.293Z,1.40
2023-05-03T15:50:08.176Z,2.25
2023-05-03T15:55:58.051Z,1.60
2023-05-03T15:58:32.398Z,1.15
2023-05-03T16:01:03.830Z,1.12
2023-05-03T16:03:33.788Z,1.50
2023-05-03T16:06:02.793Z,1.35
2023-05-03T16:09:19.385Z,2.10
2023-05-03T16:11:52.623Z,1.20
2023-05-03T16:14:24.498Z,1.20
2023-05-03T16:17:02.011Z,1.30
2023-05-03T16:19:33.327Z,1.45
2023-05-03T16:22:05.732Z,1.35
2023-05-03T16:24:37.362Z,2.02
2023-05-03T16:27:10.869Z,1.50
2023-05-03T16:29:45.445Z,1.20
2023-05-03T16:32:18.639Z,3.45
2023-05-03T16:34:52.085Z,2.85
2023-05-03T16:37:22.050Z,2.87
2023-05-03T16:39:56.585Z,2.00
2023-05-03T16:42:45.791Z,1.80
2023-05-03T16:45:36.542Z,2.30
2023-05-03T16:48:10.435Z,2.47
2023-05-03T16:50:50.222Z,1.92
2023-05-03T16:53:43.255Z,2.92
2023-05-03T16:56:16.026Z,2.12
2023-05-03T16:58:55.958Z,1.57
2023-05-03T17:01:26.479Z,1.80
2023-05-03T17:04:06.701Z,1.75
2023-05-03T17:06:43.035Z,1.85
2023-05-03T17:09:13.925Z,2.17
2023-05-03T17:11:45.492Z,2.20
2023-05-03T17:14:13.747Z,9.00
2023-05-03T17:16:41.858Z,3.85
2023-05-03T17:19:11.463Z,4.03
2023-05-03T17:21:45.557Z,6.85
2023-05-03T17:38:20.513Z,10.53
2023-05-03T17:40:53.899Z,9.20
2023-05-03T17:43:23.530Z,9.08
2023-05-03T17:45:58.129Z,10.50
2023-05-03T17:58:26.532Z,7.47
2023-05-03T18:00:56.491Z,13.83
2023-05-03T18:03:25.341Z,9.68
2023-05-03T18:06:00.964Z,4.12
2023-05-03T18:08:28.921Z,4.83
2023-05-03T18:10:59.135Z,3.67
2023-05-03T18:13:27.408Z,3.50
2023-05-03T18:15:55.578Z,4.45
2023-05-03T18:18:33.863Z,4.58
2023-05-03T18:21:05.126Z,3.20
2023-05-03T18:23:35.440Z,3.67
2023-05-03T18:26:03.379Z,3.60
2023-05-03T18:28:31.371Z,4.25
2023-05-03T18:30:59.299Z,11.63
2023-05-03T18:33:26.976Z,13.65
2023-05-03T18:35:58.369Z,12.43
2023-05-03T18:38:27.799Z,9.95
2023-05-03T18:40:58.344Z,11.25
2023-05-03T18:43:35.428Z,16.45
2023-05-03T18:46:03.233Z,13.15
2023-05-03T18:48:34.655Z,11.33
2023-05-03T18:51:05.618Z,10.80
2023-05-03T18:53:58.542Z,10.32
2023-05-03T19:15:16.325Z,12.60
2023-05-03T19:17:46.383Z,12.13
2023-05-03T19:20:17.029Z,12.50
2023-05-03T19:22:50.732Z,12.93
2023-05-03T19:25:24.743Z,12.37
2023-05-03T19:27:52.949Z,10.60
2023-05-03T19:30:23.735Z,9.88
2023-05-03T19:32:52.694Z,10.50
2023-05-03T19:35:29.099Z,10.40
2023-05-03T19:38:03.176Z,10.35
2023-05-03T19:40:34.810Z,11.38
2023-05-03T19:43:03.027Z,15.70
2023-05-03T19:45:31.118Z,17.00
2023-05-03T19:47:59.547Z,23.83
2023-05-03T19:50:29.960Z,14.20
2023-05-03T19:52:57.892Z,13.32
2023-05-03T19:55:30.858Z,15.60
2023-05-03T19:57:59.083Z,8.15
2023-05-03T20:00:27.992Z,7.50
2023-05-03T20:02:56.083Z,5.50
2023-05-03T20:05:24.247Z,6.45
2023-05-03T20:07:54.486Z,5.28
2023-05-03T20:10:46.397Z,4.42
2023-05-03T20:13:47.253Z,4.25
2023-05-03T20:16:21.625Z,2.17
2023-05-03T20:19:00.023Z,2.00
2023-05-03T20:38:43.342Z,2.60
2023-05-03T20:51:19.799Z,2.95
2023-05-03T20:54:09.656Z,3.10
2023-05-03T20:57:00.704Z,3.30
2023-05-03T20:59:31.881Z,2.67
2023-05-03T21:02:21.641Z,2.65
2023-05-03T21:04:51.765Z,4.37
2023-05-03T21:10:11.554Z,4.42
2023-05-03T21:12:42.015Z,3.98
2023-05-03T21:15:21.666Z,4.58
2023-05-03T21:17:54.678Z,4.42
2023-05-03T21:20:27.411Z,4.37
2023-05-03T21:22:55.430Z,4.42
2023-05-03T21:25:24.270Z,4.50
2023-05-03T21:28:02.403Z,4.45
2023-05-03T21:30:35.639Z,4.17
2023-05-03T21:33:04.118Z,4.22
2023-05-03T21:35:34.306Z,4.05
2023-05-03T21:38:02.564Z,4.65
2023-05-03T21:40:31.480Z,4.55
2023-05-03T21:43:07.486Z,4.35
2023-05-03T21:45:43.767Z,4.20
2023-05-03T21:48:12.764Z,4.78
2023-05-03T21:50:42.925Z,4.58
2023-05-03T21:53:23.074Z,4.80
2023-05-03T21:56:01.931Z,4.25
2023-05-03T21:58:34.212Z,3.98
2023-05-03T22:01:03.294Z,3.70
2023-05-03T22:03:32.852Z,4.50
2023-05-03T22:06:01.240Z,4.72
2023-05-03T22:08:30.207Z,4.20
2023-05-03T22:10:59.242Z,4.10
2023-05-03T22:13:27.486Z,4.40
2023-05-03T22:15:57.413Z,4.78
2023-05-03T22:22:35.429Z,4.07
2023-05-03T22:25:48.552Z,3.50
2023-05-03T22:28:31.709Z,3.98
2023-05-03T22:31:28.173Z,3.80
2023-05-03T22:34:17.276Z,3.00
2023-05-03T22:36:53.298Z,2.67
2023-05-03T22:39:43.389Z,2.80
2023-05-03T22:42:17.965Z,2.55
2023-05-03T22:44:46.148Z,2.50
2023-05-03T22:47:15.128Z,2.40
2023-05-03T22:49:45.289Z,1.75
2023-05-03T22:52:13.438Z,1.60
2023-05-03T23:02:29.781Z,1.60
2023-05-03T23:05:35.260Z,1.47
2023-05-03T23:08:06.501Z,1.82
2023-05-03T23:10:34.506Z,1.55
2023-05-03T23:13:02.523Z,1.80
2023-05-03T23:15:30.753Z,2.08
2023-05-03T23:17:58.936Z,1.77
2023-05-03T23:20:26.896Z,2.02
2023-05-03T23:22:54.983Z,2.25
2023-05-03T23:25:23.213Z,1.55
2023-05-03T23:27:53.738Z,2.05
2023-05-03T23:30:22.783Z,2.42
2023-05-03T23:32:54.436Z,1.90
2023-05-03T23:35:22.883Z,2.12
2023-05-03T23:37:51.129Z,2.47
2023-05-03T23:40:19.389Z,2.58
2023-05-03T23:42:48.771Z,2.00
2023-05-03T23:45:17.340Z,2.27
2023-05-03T23:47:45.532Z,3.05
2023-05-03T23:50:13.494Z,3.52
2023-05-03T23:52:42.083Z,4.00
2023-05-03T23:55:10.543Z,3.72
2023-05-03T23:57:40.529Z,3.83
